sensor_id;sensor_type;location;lat;lon;timestamp;pressure;altitude;pressure_sealevel;temperature;humidity
6343;BME280;3204;42.698;23.298;2023-05-11T00:01:05;95091.38;;;10.88;79.50
6343;BME280;3204;42.698;23.298;2023-05-11T00:03:31;95088.28;;;10.81;79.64
6343;BME280;3204;42.698;23.298;2023-05-11T00:05:57;95092.84;;;10.72;80.03
6343;BME280;3204;42.698;23.298;2023-05-11T00:08:23;95086.91;;;10.70;79.76
6343;BME280;3204;42.698;23.298;2023-05-11T00:10:48;95086.00;;;10.75;79.90
6343;BME280;3204;42.698;23.298;2023-05-11T00:13:14;95093.63;;;10.73;80.45
6343;BME280;3204;42.698;23.298;2023-05-11T00:15:40;95096.75;;;10.66;80.33
6343;BME280;3204;42.698;23.298;2023-05-11T00:18:05;95095.88;;;10.57;80.84
6343;BME280;3204;42.698;23.298;2023-05-11T00:20:31;95095.25;;;10.60;80.51
6343;BME280;3204;42.698;23.298;2023-05-11T00:22:56;95092.38;;;10.57;80.72
6343;BME280;3204;42.698;23.298;2023-05-11T00:25:22;95094.56;;;10.55;80.88
6343;BME280;3204;42.698;23.298;2023-05-11T00:27:47;95086.25;;;10.51;80.97
6343;BME280;3204;42.698;23.298;2023-05-11T00:30:13;95082.69;;;10.64;80.95
6343;BME280;3204;42.698;23.298;2023-05-11T00:32:42;95089.31;;;10.72;80.51
6343;BME280;3204;42.698;23.298;2023-05-11T00:35:09;95080.41;;;10.58;79.91
6343;BME280;3204;42.698;23.298;2023-05-11T00:37:39;95102.44;;;10.43;80.49
6343;BME280;3204;42.698;23.298;2023-05-11T00:40:05;95106.03;;;10.52;80.03
6343;BME280;3204;42.698;23.298;2023-05-11T00:42:31;95103.75;;;10.45;80.34
6343;BME280;3204;42.698;23.298;2023-05-11T00:44:56;95104.63;;;10.41;80.06
6343;BME280;3204;42.698;23.298;2023-05-11T00:47:22;95114.09;;;10.43;79.78
6343;BME280;3204;42.698;23.298;2023-05-11T00:49:49;95100.94;;;10.37;80.29
6343;BME280;3204;42.698;23.298;2023-05-11T00:52:16;95113.09;;;10.39;79.98
6343;BME280;3204;42.698;23.298;2023-05-11T00:54:42;95110.69;;;10.38;79.79
6343;BME280;3204;42.698;23.298;2023-05-11T00:57:08;95106.28;;;10.15;80.08
6343;BME280;3204;42.698;23.298;2023-05-11T00:59:34;95107.00;;;10.20;79.83
6343;BME280;3204;42.698;23.298;2023-05-11T01:01:59;95106.38;;;10.23;79.69
6343;BME280;3204;42.698;23.298;2023-05-11T01:04:25;95100.84;;;10.15;79.82
6343;BME280;3204;42.698;23.298;2023-05-11T01:07:25;95104.28;;;10.20;80.02
6343;BME280;3204;42.698;23.298;2023-05-11T01:10:07;95097.03;;;10.16;80.23
6343;BME280;3204;42.698;23.298;2023-05-11T01:12:43;95106.28;;;10.15;79.90
6343;BME280;3204;42.698;23.298;2023-05-11T01:15:31;95100.16;;;10.09;80.53
6343;BME280;3204;42.698;23.298;2023-05-11T01:20:33;95096.34;;;10.24;79.21
6343;BME280;3204;42.698;23.298;2023-05-11T01:23:19;95108.28;;;10.23;79.70
6343;BME280;3204;42.698;23.298;2023-05-11T01:31:20;95106.75;;;10.17;79.86
6343;BME280;3204;42.698;23.298;2023-05-11T01:33:54;95113.41;;;10.24;79.85
6343;BME280;3204;42.698;23.298;2023-05-11T01:36:26;95107.66;;;10.26;79.91
6343;BME280;3204;42.698;23.298;2023-05-11T01:38:53;95102.66;;;10.33;79.40
6343;BME280;3204;42.698;23.298;2023-05-11T01:41:23;95105.47;;;10.14;80.11
6343;BME280;3204;42.698;23.298;2023-05-11T01:43:59;95108.69;;;10.16;80.09
6343;BME280;3204;42.698;23.298;2023-05-11T01:46:31;95112.50;;;10.29;80.04
6343;BME280;3204;42.698;23.298;2023-05-11T01:48:58;95116.72;;;10.21;80.55
6343;BME280;3204;42.698;23.298;2023-05-11T01:51:26;95109.00;;;10.15;81.30
6343;BME280;3204;42.698;23.298;2023-05-11T01:53:53;95116.09;;;10.11;81.55
6343;BME280;3204;42.698;23.298;2023-05-11T01:56:20;95108.06;;;10.19;81.09
6343;BME280;3204;42.698;23.298;2023-05-11T01:58:48;95107.47;;;10.22;81.05
6343;BME280;3204;42.698;23.298;2023-05-11T02:01:15;95111.50;;;10.25;80.26
6343;BME280;3204;42.698;23.298;2023-05-11T02:03:41;95102.16;;;10.17;80.13
6343;BME280;3204;42.698;23.298;2023-05-11T02:06:09;95106.09;;;10.11;80.49
6343;BME280;3204;42.698;23.298;2023-05-11T02:08:36;95114.50;;;10.10;80.16
6343;BME280;3204;42.698;23.298;2023-05-11T02:11:05;95103.66;;;9.96;80.69
6343;BME280;3204;42.698;23.298;2023-05-11T02:13:32;95102.66;;;9.92;80.17
6343;BME280;3204;42.698;23.298;2023-05-11T02:15:59;95103.03;;;9.99;79.99
6343;BME280;3204;42.698;23.298;2023-05-11T02:18:26;95109.69;;;10.07;80.46
6343;BME280;3204;42.698;23.298;2023-05-11T02:20:53;95094.31;;;10.02;80.11
6343;BME280;3204;42.698;23.298;2023-05-11T02:23:21;95102.56;;;10.11;79.96
6343;BME280;3204;42.698;23.298;2023-05-11T02:25:51;95100.84;;;10.01;79.54
6343;BME280;3204;42.698;23.298;2023-05-11T02:28:17;95087.88;;;9.85;79.79
6343;BME280;3204;42.698;23.298;2023-05-11T02:30:49;95098.22;;;9.83;80.43
6343;BME280;3204;42.698;23.298;2023-05-11T02:33:29;95103.22;;;9.89;81.01
6343;BME280;3204;42.698;23.298;2023-05-11T02:35:56;95098.50;;;9.81;80.48
6343;BME280;3204;42.698;23.298;2023-05-11T02:38:24;95102.63;;;9.79;80.17
6343;BME280;3204;42.698;23.298;2023-05-11T02:40:56;95106.53;;;9.73;80.24
6343;BME280;3204;42.698;23.298;2023-05-11T02:43:24;95098.31;;;9.78;80.30
6343;BME280;3204;42.698;23.298;2023-05-11T02:45:59;95093.69;;;9.78;80.00
6343;BME280;3204;42.698;23.298;2023-05-11T02:48:27;95096.22;;;9.75;80.65
6343;BME280;3204;42.698;23.298;2023-05-11T02:50:55;95099.78;;;9.57;81.01
6343;BME280;3204;42.698;23.298;2023-05-11T02:53:26;95098.78;;;9.66;80.62
6343;BME280;3204;42.698;23.298;2023-05-11T02:55:53;95091.78;;;9.52;80.64
6343;BME280;3204;42.698;23.298;2023-05-11T02:58:19;95098.03;;;9.34;81.23
6343;BME280;3204;42.698;23.298;2023-05-11T03:00:45;95099.72;;;9.30;81.98
6343;BME280;3204;42.698;23.298;2023-05-11T03:03:11;95093.13;;;9.36;81.51
6343;BME280;3204;42.698;23.298;2023-05-11T03:05:36;95096.56;;;9.41;81.24
6343;BME280;3204;42.698;23.298;2023-05-11T03:08:02;95097.38;;;9.42;81.33
6343;BME280;3204;42.698;23.298;2023-05-11T03:10:28;95093.56;;;9.56;81.08
6343;BME280;3204;42.698;23.298;2023-05-11T03:12:54;95094.78;;;9.50;80.66
6343;BME280;3204;42.698;23.298;2023-05-11T03:15:20;95095.34;;;9.47;81.13
6343;BME280;3204;42.698;23.298;2023-05-11T03:17:48;95097.38;;;9.42;81.17
6343;BME280;3204;42.698;23.298;2023-05-11T03:20:15;95086.22;;;9.43;81.53
6343;BME280;3204;42.698;23.298;2023-05-11T03:22:41;95097.59;;;9.59;80.80
6343;BME280;3204;42.698;23.298;2023-05-11T03:25:08;95106.13;;;9.66;80.43
6343;BME280;3204;42.698;23.298;2023-05-11T03:27:34;95106.09;;;9.52;80.70
6343;BME280;3204;42.698;23.298;2023-05-11T03:30:02;95101.59;;;9.48;80.77
6343;BME280;3204;42.698;23.298;2023-05-11T03:32:29;95099.66;;;9.48;81.41
6343;BME280;3204;42.698;23.298;2023-05-11T03:34:54;95108.50;;;9.54;81.24
6343;BME280;3204;42.698;23.298;2023-05-11T03:37:20;95118.22;;;9.41;81.06
6343;BME280;3204;42.698;23.298;2023-05-11T03:39:51;95104.97;;;9.40;81.57
6343;BME280;3204;42.698;23.298;2023-05-11T03:42:19;95108.78;;;9.39;81.25
6343;BME280;3204;42.698;23.298;2023-05-11T03:44:48;95098.53;;;9.36;81.96
6343;BME280;3204;42.698;23.298;2023-05-11T03:47:16;95096.34;;;9.38;81.39
6343;BME280;3204;42.698;23.298;2023-05-11T03:49:42;95104.97;;;9.40;82.15
6343;BME280;3204;42.698;23.298;2023-05-11T03:52:09;95108.19;;;9.42;81.76
6343;BME280;3204;42.698;23.298;2023-05-11T03:54:35;95109.88;;;9.38;82.67
6343;BME280;3204;42.698;23.298;2023-05-11T03:57:01;95108.56;;;9.35;82.89
6343;BME280;3204;42.698;23.298;2023-05-11T03:59:26;95116.00;;;9.43;82.60
6343;BME280;3204;42.698;23.298;2023-05-11T04:01:52;95109.59;;;9.39;83.00
6343;BME280;3204;42.698;23.298;2023-05-11T04:04:18;95116.00;;;9.43;83.11
6343;BME280;3204;42.698;23.298;2023-05-11T04:06:44;95121.94;;;9.45;82.29
6343;BME280;3204;42.698;23.298;2023-05-11T04:09:10;95115.50;;;9.41;82.60
6343;BME280;3204;42.698;23.298;2023-05-11T04:11:36;95123.53;;;9.46;82.54
6343;BME280;3204;42.698;23.298;2023-05-11T04:14:02;95120.00;;;9.46;83.79
6343;BME280;3204;42.698;23.298;2023-05-11T04:16:27;95124.00;;;9.35;83.87
6343;BME280;3204;42.698;23.298;2023-05-11T04:18:53;95121.81;;;9.37;83.81
6343;BME280;3204;42.698;23.298;2023-05-11T04:21:18;95125.00;;;9.25;83.48
6343;BME280;3204;42.698;23.298;2023-05-11T04:23:43;95114.53;;;9.19;85.14
6343;BME280;3204;42.698;23.298;2023-05-11T04:26:09;95127.91;;;9.10;85.19
6343;BME280;3204;42.698;23.298;2023-05-11T04:28:34;95127.03;;;9.15;85.26
6343;BME280;3204;42.698;23.298;2023-05-11T04:31:00;95133.13;;;9.07;85.71
6343;BME280;3204;42.698;23.298;2023-05-11T04:33:25;95131.22;;;9.07;85.61
6343;BME280;3204;42.698;23.298;2023-05-11T04:35:52;95126.97;;;9.20;85.75
6343;BME280;3204;42.698;23.298;2023-05-11T04:38:19;95134.34;;;9.14;86.04
6343;BME280;3204;42.698;23.298;2023-05-11T04:40:45;95131.34;;;9.16;85.87
6343;BME280;3204;42.698;23.298;2023-05-11T04:43:15;95141.50;;;9.24;85.29
6343;BME280;3204;42.698;23.298;2023-05-11T04:45:41;95129.75;;;9.15;85.66
6343;BME280;3204;42.698;23.298;2023-05-11T04:48:11;95132.25;;;9.11;86.15
6343;BME280;3204;42.698;23.298;2023-05-11T04:50:36;95139.19;;;9.17;86.63
6343;BME280;3204;42.698;23.298;2023-05-11T04:53:02;95140.22;;;9.03;86.99
6343;BME280;3204;42.698;23.298;2023-05-11T04:55:27;95135.75;;;9.12;87.24
6343;BME280;3204;42.698;23.298;2023-05-11T04:57:53;95148.13;;;9.18;86.42
6343;BME280;3204;42.698;23.298;2023-05-11T05:00:19;95149.47;;;9.34;86.43
6343;BME280;3204;42.698;23.298;2023-05-11T05:02:44;95139.50;;;9.29;85.98
6343;BME280;3204;42.698;23.298;2023-05-11T05:05:10;95152.16;;;9.34;86.47
6343;BME280;3204;42.698;23.298;2023-05-11T05:07:35;95143.47;;;9.37;86.01
6343;BME280;3204;42.698;23.298;2023-05-11T05:10:01;95157.28;;;9.35;85.88
6343;BME280;3204;42.698;23.298;2023-05-11T05:12:28;95150.13;;;9.26;86.35
6343;BME280;3204;42.698;23.298;2023-05-11T05:14:53;95149.59;;;9.42;86.10
6343;BME280;3204;42.698;23.298;2023-05-11T05:17:19;95154.63;;;9.49;86.22
6343;BME280;3204;42.698;23.298;2023-05-11T05:19:44;95161.56;;;9.55;85.76
6343;BME280;3204;42.698;23.298;2023-05-11T05:22:10;95163.41;;;9.73;85.02
6343;BME280;3204;42.698;23.298;2023-05-11T05:24:35;95160.19;;;9.71;85.13
6343;BME280;3204;42.698;23.298;2023-05-11T05:27:01;95163.94;;;9.75;84.91
6343;BME280;3204;42.698;23.298;2023-05-11T05:29:26;95160.50;;;9.83;84.95
6343;BME280;3204;42.698;23.298;2023-05-11T05:31:52;95163.41;;;9.86;85.32
6343;BME280;3204;42.698;23.298;2023-05-11T05:34:17;95174.88;;;9.97;83.94
6343;BME280;3204;42.698;23.298;2023-05-11T05:36:43;95172.53;;;9.77;84.28
6343;BME280;3204;42.698;23.298;2023-05-11T05:39:08;95176.06;;;9.77;84.17
6343;BME280;3204;42.698;23.298;2023-05-11T05:41:36;95173.22;;;9.69;84.25
6343;BME280;3204;42.698;23.298;2023-05-11T05:44:02;95177.00;;;9.54;84.60
6343;BME280;3204;42.698;23.298;2023-05-11T05:46:27;95170.75;;;9.72;85.19
6343;BME280;3204;42.698;23.298;2023-05-11T05:48:53;95177.66;;;9.78;84.41
6343;BME280;3204;42.698;23.298;2023-05-11T05:51:19;95178.69;;;9.82;84.33
6343;BME280;3204;42.698;23.298;2023-05-11T05:53:45;95176.09;;;9.91;84.12
6343;BME280;3204;42.698;23.298;2023-05-11T05:56:10;95181.31;;;10.01;84.03
6343;BME280;3204;42.698;23.298;2023-05-11T05:58:36;95184.88;;;10.15;82.99
6343;BME280;3204;42.698;23.298;2023-05-11T06:01:01;95183.28;;;9.82;84.23
6343;BME280;3204;42.698;23.298;2023-05-11T06:03:27;95181.44;;;9.64;84.45
6343;BME280;3204;42.698;23.298;2023-05-11T06:05:52;95193.63;;;9.80;84.97
6343;BME280;3204;42.698;23.298;2023-05-11T06:08:18;95182.78;;;9.80;83.96
6343;BME280;3204;42.698;23.298;2023-05-11T06:10:43;95184.78;;;9.88;84.41
6343;BME280;3204;42.698;23.298;2023-05-11T06:13:09;95194.22;;;9.90;83.52
6343;BME280;3204;42.698;23.298;2023-05-11T06:15:34;95190.09;;;9.66;84.91
6343;BME280;3204;42.698;23.298;2023-05-11T06:18:00;95195.22;;;9.81;84.52
6343;BME280;3204;42.698;23.298;2023-05-11T06:20:25;95198.53;;;9.78;83.99
6343;BME280;3204;42.698;23.298;2023-05-11T06:22:50;95205.88;;;9.91;84.03
6343;BME280;3204;42.698;23.298;2023-05-11T06:25:16;95218.00;;;9.80;83.37
6343;BME280;3204;42.698;23.298;2023-05-11T06:27:42;95203.34;;;9.81;84.83
6343;BME280;3204;42.698;23.298;2023-05-11T06:30:07;95214.59;;;9.88;84.74
6343;BME280;3204;42.698;23.298;2023-05-11T06:32:33;95214.88;;;9.86;84.03
6343;BME280;3204;42.698;23.298;2023-05-11T06:34:58;95208.00;;;9.94;84.29
6343;BME280;3204;42.698;23.298;2023-05-11T06:37:24;95192.34;;;9.91;84.60
6343;BME280;3204;42.698;23.298;2023-05-11T06:39:50;95209.25;;;10.15;84.11
6343;BME280;3204;42.698;23.298;2023-05-11T06:42:15;95211.38;;;10.18;83.42
6343;BME280;3204;42.698;23.298;2023-05-11T06:44:40;95206.47;;;10.20;82.54
6343;BME280;3204;42.698;23.298;2023-05-11T06:47:07;95207.16;;;10.12;82.60
6343;BME280;3204;42.698;23.298;2023-05-11T06:49:32;95212.28;;;10.13;83.33
6343;BME280;3204;42.698;23.298;2023-05-11T06:51:58;95196.97;;;10.04;83.18
6343;BME280;3204;42.698;23.298;2023-05-11T06:54:24;95209.72;;;10.03;83.41
6343;BME280;3204;42.698;23.298;2023-05-11T06:56:50;95206.47;;;10.20;82.84
6343;BME280;3204;42.698;23.298;2023-05-11T06:59:15;95204.06;;;10.32;82.71
6343;BME280;3204;42.698;23.298;2023-05-11T07:01:41;95207.66;;;10.27;82.18
6343;BME280;3204;42.698;23.298;2023-05-11T07:04:06;95210.47;;;10.22;82.24
6343;BME280;3204;42.698;23.298;2023-05-11T07:06:32;95207.06;;;10.30;82.25
6343;BME280;3204;42.698;23.298;2023-05-11T07:08:58;95202.66;;;10.48;81.53
6343;BME280;3204;42.698;23.298;2023-05-11T07:11:24;95210.47;;;10.63;81.26
6343;BME280;3204;42.698;23.298;2023-05-11T07:13:49;95208.69;;;10.58;80.06
6343;BME280;3204;42.698;23.298;2023-05-11T07:16:15;95225.38;;;10.52;80.36
6343;BME280;3204;42.698;23.298;2023-05-11T07:18:41;95220.63;;;10.44;80.15
6343;BME280;3204;42.698;23.298;2023-05-11T07:21:06;95217.63;;;10.59;80.39
6343;BME280;3204;42.698;23.298;2023-05-11T07:23:32;95217.22;;;10.65;80.07
6343;BME280;3204;42.698;23.298;2023-05-11T07:25:57;95219.09;;;10.92;79.26
6343;BME280;3204;42.698;23.298;2023-05-11T07:28:23;95223.63;;;10.83;79.20
6343;BME280;3204;42.698;23.298;2023-05-11T07:30:48;95224.91;;;10.99;78.78
6343;BME280;3204;42.698;23.298;2023-05-11T07:33:14;95225.03;;;10.94;78.42
6343;BME280;3204;42.698;23.298;2023-05-11T07:35:39;95221.47;;;11.07;77.52
6343;BME280;3204;42.698;23.298;2023-05-11T07:38:05;95218.22;;;11.32;77.29
6343;BME280;3204;42.698;23.298;2023-05-11T07:40:33;95226.59;;;11.44;76.46
6343;BME280;3204;42.698;23.298;2023-05-11T07:42:59;95217.28;;;11.36;75.63
6343;BME280;3204;42.698;23.298;2023-05-11T07:45:24;95213.88;;;11.31;75.53
6343;BME280;3204;42.698;23.298;2023-05-11T07:47:50;95222.88;;;11.40;75.52
6343;BME280;3204;42.698;23.298;2023-05-11T07:50:16;95227.56;;;11.26;75.81
6343;BME280;3204;42.698;23.298;2023-05-11T07:52:42;95227.59;;;11.48;75.42
6343;BME280;3204;42.698;23.298;2023-05-11T07:55:08;95222.94;;;11.62;74.90
6343;BME280;3204;42.698;23.298;2023-05-11T07:57:33;95238.94;;;11.85;74.11
6343;BME280;3204;42.698;23.298;2023-05-11T07:59:59;95237.03;;;11.86;73.12
6343;BME280;3204;42.698;23.298;2023-05-11T08:02:25;95235.91;;;11.87;72.89
6343;BME280;3204;42.698;23.298;2023-05-11T08:04:50;95227.88;;;12.04;73.01
6343;BME280;3204;42.698;23.298;2023-05-11T08:07:16;95229.59;;;12.22;72.60
6343;BME280;3204;42.698;23.298;2023-05-11T08:09:41;95225.44;;;12.24;72.19
6343;BME280;3204;42.698;23.298;2023-05-11T08:12:08;95228.28;;;12.50;72.39
6343;BME280;3204;42.698;23.298;2023-05-11T08:14:33;95225.47;;;12.72;70.12
6343;BME280;3204;42.698;23.298;2023-05-11T08:16:59;95234.75;;;12.32;70.71
6343;BME280;3204;42.698;23.298;2023-05-11T08:19:24;95228.28;;;12.50;70.83
6343;BME280;3204;42.698;23.298;2023-05-11T08:21:50;95231.59;;;12.86;69.66
6343;BME280;3204;42.698;23.298;2023-05-11T08:24:15;95232.06;;;12.79;68.81
6343;BME280;3204;42.698;23.298;2023-05-11T08:26:41;95235.75;;;12.75;69.23
6343;BME280;3204;42.698;23.298;2023-05-11T08:29:07;95232.50;;;12.64;69.16
6343;BME280;3204;42.698;23.298;2023-05-11T08:31:32;95224.41;;;12.81;68.84
6343;BME280;3204;42.698;23.298;2023-05-11T08:33:57;95229.66;;;12.39;68.99
6343;BME280;3204;42.698;23.298;2023-05-11T08:36:23;95240.59;;;12.47;69.05
6343;BME280;3204;42.698;23.298;2023-05-11T08:38:49;95234.25;;;12.60;69.39
6343;BME280;3204;42.698;23.298;2023-05-11T08:41:14;95243.59;;;12.76;68.21
6343;BME280;3204;42.698;23.298;2023-05-11T08:43:40;95233.47;;;12.68;67.78
6343;BME280;3204;42.698;23.298;2023-05-11T08:46:08;95228.50;;;12.70;67.62
6343;BME280;3204;42.698;23.298;2023-05-11T08:48:35;95241.00;;;13.02;68.63
6343;BME280;3204;42.698;23.298;2023-05-11T08:51:01;95240.03;;;12.98;67.62
6343;BME280;3204;42.698;23.298;2023-05-11T08:53:28;95239.25;;;13.14;68.36
6343;BME280;3204;42.698;23.298;2023-05-11T08:55:57;95243.75;;;12.71;67.25
6343;BME280;3204;42.698;23.298;2023-05-11T08:58:23;95235.63;;;12.88;67.16
6343;BME280;3204;42.698;23.298;2023-05-11T09:00:49;95211.50;;;13.04;67.00
6343;BME280;3204;42.698;23.298;2023-05-11T09:03:16;95224.03;;;13.22;66.88
6343;BME280;3204;42.698;23.298;2023-05-11T09:05:44;95223.06;;;13.18;66.58
6343;BME280;3204;42.698;23.298;2023-05-11T09:08:11;95226.72;;;13.13;67.39
6343;BME280;3204;42.698;23.298;2023-05-11T09:10:37;95219.88;;;13.41;67.50
6343;BME280;3204;42.698;23.298;2023-05-11T09:13:02;95218.16;;;13.54;67.53
6343;BME280;3204;42.698;23.298;2023-05-11T09:15:29;95218.44;;;13.44;67.84
6343;BME280;3204;42.698;23.298;2023-05-11T09:17:54;95211.09;;;13.36;68.53
6343;BME280;3204;42.698;23.298;2023-05-11T09:20:26;95213.75;;;13.02;68.98
6343;BME280;3204;42.698;23.298;2023-05-11T09:22:53;95223.88;;;12.71;70.52
6343;BME280;3204;42.698;23.298;2023-05-11T09:25:20;95216.53;;;12.80;69.60
6343;BME280;3204;42.698;23.298;2023-05-11T09:27:46;95220.56;;;12.43;71.70
6343;BME280;3204;42.698;23.298;2023-05-11T09:30:20;95227.97;;;12.21;72.51
6343;BME280;3204;42.698;23.298;2023-05-11T09:32:56;95213.41;;;12.47;72.24
6343;BME280;3204;42.698;23.298;2023-05-11T09:35:28;95218.81;;;12.95;71.34
6343;BME280;3204;42.698;23.298;2023-05-11T09:38:11;95213.84;;;12.88;70.37
6343;BME280;3204;42.698;23.298;2023-05-11T09:40:51;95210.28;;;12.71;71.46
6343;BME280;3204;42.698;23.298;2023-05-11T09:43:25;95207.84;;;12.61;72.00
6343;BME280;3204;42.698;23.298;2023-05-11T09:45:53;95209.44;;;12.23;73.36
6343;BME280;3204;42.698;23.298;2023-05-11T09:50:45;95213.06;;;12.49;72.26
6343;BME280;3204;42.698;23.298;2023-05-11T09:53:10;95198.75;;;12.35;73.51
6343;BME280;3204;42.698;23.298;2023-05-11T09:55:36;95200.00;;;12.68;72.98
6343;BME280;3204;42.698;23.298;2023-05-11T09:58:02;95193.78;;;12.76;71.84
6343;BME280;3204;42.698;23.298;2023-05-11T10:00:29;95198.34;;;12.97;70.87
6343;BME280;3204;42.698;23.298;2023-05-11T10:03:06;95199.09;;;12.81;71.43
6343;BME280;3204;42.698;23.298;2023-05-11T10:05:33;95199.22;;;12.67;71.61
6343;BME280;3204;42.698;23.298;2023-05-11T10:08:01;95176.84;;;12.40;72.57
6343;BME280;3204;42.698;23.298;2023-05-11T10:10:32;95191.25;;;12.32;72.89
6343;BME280;3204;42.698;23.298;2023-05-11T10:13:01;95187.00;;;12.56;72.70
6343;BME280;3204;42.698;23.298;2023-05-11T10:15:28;95186.59;;;12.80;71.97
6343;BME280;3204;42.698;23.298;2023-05-11T10:17:55;95174.94;;;12.88;71.69
6343;BME280;3204;42.698;23.298;2023-05-11T10:20:21;95167.94;;;13.12;71.35
6343;BME280;3204;42.698;23.298;2023-05-11T10:22:49;95173.72;;;13.28;71.48
6343;BME280;3204;42.698;23.298;2023-05-11T10:25:15;95183.81;;;13.44;69.66
6343;BME280;3204;42.698;23.298;2023-05-11T10:27:41;95179.03;;;13.24;69.81
6343;BME280;3204;42.698;23.298;2023-05-11T10:30:09;95173.38;;;13.04;70.03
6343;BME280;3204;42.698;23.298;2023-05-11T10:32:36;95173.09;;;13.31;69.88
6343;BME280;3204;42.698;23.298;2023-05-11T10:35:03;95172.44;;;13.17;69.39
6343;BME280;3204;42.698;23.298;2023-05-11T10:37:31;95165.88;;;13.26;69.91
6343;BME280;3204;42.698;23.298;2023-05-11T10:39:57;95157.88;;;13.38;69.25
6343;BME280;3204;42.698;23.298;2023-05-11T10:45:06;95161.31;;;14.07;67.47
6343;BME280;3204;42.698;23.298;2023-05-11T11:01:38;95158.13;;;14.51;65.58
6343;BME280;3204;42.698;23.298;2023-05-11T11:04:06;95168.84;;;14.56;66.02
6343;BME280;3204;42.698;23.298;2023-05-11T11:06:33;95178.75;;;14.69;65.89
6343;BME280;3204;42.698;23.298;2023-05-11T11:09:02;95159.44;;;14.74;64.69
6343;BME280;3204;42.698;23.298;2023-05-11T11:11:37;95169.53;;;14.82;64.09
6343;BME280;3204;42.698;23.298;2023-05-11T11:14:04;95165.34;;;15.05;64.12
6343;BME280;3204;42.698;23.298;2023-05-11T11:16:34;95167.03;;;14.68;64.86
6343;BME280;3204;42.698;23.298;2023-05-11T11:22:00;95160.84;;;14.51;64.65
6343;BME280;3204;42.698;23.298;2023-05-11T11:27:07;95164.72;;;14.41;65.49
6343;BME280;3204;42.698;23.298;2023-05-11T11:29:34;95163.78;;;14.75;64.37
6343;BME280;3204;42.698;23.298;2023-05-11T11:34:46;95160.03;;;14.59;64.69
6343;BME280;3204;42.698;23.298;2023-05-11T11:37:13;95152.75;;;14.63;64.57
6343;BME280;3204;42.698;23.298;2023-05-11T11:44:34;95150.16;;;14.29;66.17
6343;BME280;3204;42.698;23.298;2023-05-11T11:47:18;95156.72;;;14.45;65.16
6343;BME280;3204;42.698;23.298;2023-05-11T11:49:49;95138.44;;;14.37;66.08
6343;BME280;3204;42.698;23.298;2023-05-11T11:54:53;95143.84;;;14.45;64.93
6343;BME280;3204;42.698;23.298;2023-05-11T12:00:05;95142.75;;;14.46;65.28
6343;BME280;3204;42.698;23.298;2023-05-11T12:02:32;95145.75;;;14.53;64.72
6343;BME280;3204;42.698;23.298;2023-05-11T12:07:33;95152.88;;;14.37;65.26
6343;BME280;3204;42.698;23.298;2023-05-11T12:10:02;95147.94;;;14.31;64.91
6343;BME280;3204;42.698;23.298;2023-05-11T12:12:29;95140.03;;;14.38;65.74
6343;BME280;3204;42.698;23.298;2023-05-11T12:14:54;95146.47;;;14.33;65.54
6343;BME280;3204;42.698;23.298;2023-05-11T12:17:27;95142.28;;;14.36;65.89
6343;BME280;3204;42.698;23.298;2023-05-11T12:19:54;95141.81;;;14.34;65.60
6343;BME280;3204;42.698;23.298;2023-05-11T12:22:21;95131.56;;;14.31;65.37
6343;BME280;3204;42.698;23.298;2023-05-11T12:24:47;95131.00;;;14.00;65.88
6343;BME280;3204;42.698;23.298;2023-05-11T12:27:15;95126.34;;;14.00;66.35
6343;BME280;3204;42.698;23.298;2023-05-11T12:29:41;95118.28;;;14.21;65.86
6343;BME280;3204;42.698;23.298;2023-05-11T12:32:13;95126.88;;;14.40;65.65
6343;BME280;3204;42.698;23.298;2023-05-11T12:34:38;95121.34;;;14.02;66.16
6343;BME280;3204;42.698;23.298;2023-05-11T12:37:05;95112.16;;;13.61;67.51
6343;BME280;3204;42.698;23.298;2023-05-11T12:39:30;95105.72;;;13.74;67.28
6343;BME280;3204;42.698;23.298;2023-05-11T12:41:56;95109.69;;;13.85;67.54
6343;BME280;3204;42.698;23.298;2023-05-11T12:44:24;95106.63;;;13.95;67.68
6343;BME280;3204;42.698;23.298;2023-05-11T12:46:50;95101.56;;;14.22;66.35
6343;BME280;3204;42.698;23.298;2023-05-11T12:49:20;95093.88;;;14.24;66.35
6343;BME280;3204;42.698;23.298;2023-05-11T12:52:04;95102.31;;;14.40;65.24
6343;BME280;3204;42.698;23.298;2023-05-11T12:54:51;95097.72;;;14.15;65.17
6343;BME280;3204;42.698;23.298;2023-05-11T12:57:25;95094.53;;;14.13;65.58
6343;BME280;3204;42.698;23.298;2023-05-11T13:05:12;95080.88;;;14.21;65.16
6343;BME280;3204;42.698;23.298;2023-05-11T13:07:38;95089.53;;;14.15;65.27
6343;BME280;3204;42.698;23.298;2023-05-11T13:10:04;95092.53;;;13.93;65.76
6343;BME280;3204;42.698;23.298;2023-05-11T13:12:29;95081.19;;;13.74;66.05
6343;BME280;3204;42.698;23.298;2023-05-11T13:15:07;95080.09;;;13.58;66.91
6343;BME280;3204;42.698;23.298;2023-05-11T13:17:38;95076.44;;;13.45;66.98
6343;BME280;3204;42.698;23.298;2023-05-11T13:23:03;95080.13;;;13.41;66.99
6343;BME280;3204;42.698;23.298;2023-05-11T13:25:29;95079.16;;;13.45;67.39
6343;BME280;3204;42.698;23.298;2023-05-11T13:27:54;95084.44;;;13.50;66.79
6343;BME280;3204;42.698;23.298;2023-05-11T13:30:20;95072.44;;;13.43;67.44
6343;BME280;3204;42.698;23.298;2023-05-11T13:32:46;95066.63;;;13.53;67.80
6343;BME280;3204;42.698;23.298;2023-05-11T13:35:11;95069.50;;;13.65;67.08
6343;BME280;3204;42.698;23.298;2023-05-11T13:37:37;95073.03;;;13.57;67.30
6343;BME280;3204;42.698;23.298;2023-05-11T13:40:04;95073.69;;;13.62;67.20
6343;BME280;3204;42.698;23.298;2023-05-11T13:42:29;95072.13;;;13.36;68.25
6343;BME280;3204;42.698;23.298;2023-05-11T13:44:55;95062.31;;;13.52;68.08
6343;BME280;3204;42.698;23.298;2023-05-11T13:47:20;95062.63;;;13.59;67.70
6343;BME280;3204;42.698;23.298;2023-05-11T13:49:46;95074.31;;;13.59;68.04
6343;BME280;3204;42.698;23.298;2023-05-11T13:52:11;95070.50;;;13.52;68.39
6343;BME280;3204;42.698;23.298;2023-05-11T13:54:37;95067.03;;;13.26;68.65
6343;BME280;3204;42.698;23.298;2023-05-11T13:57:03;95056.94;;;13.09;69.12
6343;BME280;3204;42.698;23.298;2023-05-11T13:59:29;95059.97;;;13.08;69.60
6343;BME280;3204;42.698;23.298;2023-05-11T14:01:55;95058.84;;;13.09;69.90
6343;BME280;3204;42.698;23.298;2023-05-11T14:04:21;95059.81;;;13.13;69.61
6343;BME280;3204;42.698;23.298;2023-05-11T14:06:46;95063.81;;;13.24;69.73
6343;BME280;3204;42.698;23.298;2023-05-11T14:09:12;95058.50;;;13.36;69.34
6343;BME280;3204;42.698;23.298;2023-05-11T14:11:37;95052.91;;;13.41;68.53